Time;durP1;ratioP1;P1;durP2;ratioP2;P2;SDS_P1;SDS_P2;PMS_P1;PMS_P2;Temp;Humidity;BMP_temperature;BMP_pressure;BME280_temperature;BME280_humidity;BME280_pressure;Samples;Min_cycle;Max_cycle;Signal;HPM_P1;HPM_P2
2022/11/07 00:01:52;;;;;;;2.93;2.73;;;13.00;70.40;;;15.42;52.49;100511.28;4900389;29;20223;-60
2022/11/07 00:04:20;;;;;;;3.83;2.90;;;13.00;70.50;;;15.42;52.84;100519.25;4899246;29;20665;-57
2022/11/07 00:06:47;;;;;;;4.63;3.07;;;13.00;70.70;;;15.50;53.06;100526.97;4899431;29;20271;-59
2022/11/07 00:09:14;;;;;;;6.50;3.70;;;13.00;70.70;;;15.41;53.15;100520.25;4899787;29;20228;-59
2022/11/07 00:11:41;;;;;;;3.23;2.83;;;13.00;71.70;;;15.36;53.41;100512.94;4898483;29;20211;-59
2022/11/07 00:14:11;;;;;;;4.30;2.93;;;13.00;71.20;;;15.46;53.01;100517.81;4899716;29;20196;-60
2022/11/07 00:16:38;;;;;;;4.00;2.97;;;13.10;71.10;;;15.54;52.99;100533.50;4899607;29;20271;-58
2022/11/07 00:19:05;;;;;;;4.60;3.37;;;13.10;71.10;;;15.56;53.03;100528.78;4899695;29;20255;-61
2022/11/07 00:21:33;;;;;;;6.57;3.53;;;13.00;71.40;;;15.48;53.43;100542.28;4899339;29;20219;-61
2022/11/07 00:24:00;;;;;;;4.13;3.70;;;13.10;71.60;;;15.57;53.43;100539.19;4898955;29;20207;-61
2022/11/07 00:26:27;;;;;;;4.23;3.87;;;13.10;71.40;;;15.52;53.50;100533.69;4899478;29;20203;-61
2022/11/07 00:28:55;;;;;;;4.93;3.37;;;13.10;71.70;;;15.51;53.74;100536.56;4899721;29;20590;-58
2022/11/07 00:31:22;;;;;;;6.17;3.90;;;13.10;71.70;;;15.47;54.06;100546.00;4897537;29;20222;-59
2022/11/07 00:33:49;;;;;;;5.87;3.67;;;13.10;71.80;;;15.51;54.02;100534.75;4880621;29;20256;-61
2022/11/07 00:36:18;;;;;;;4.00;3.57;;;13.10;71.80;;;15.55;53.61;100540.41;4880940;29;20249;-59
2022/11/07 00:38:47;;;;;;;5.27;3.63;;;13.10;71.90;;;15.47;54.10;100546.00;4896078;29;20199;-60
2022/11/07 00:41:17;;;;;;;5.43;3.17;;;13.10;72.30;;;15.48;54.25;100550.25;4897590;29;20731;-56
2022/11/07 00:43:44;;;;;;;4.90;3.60;;;13.10;72.20;;;15.58;53.79;100548.78;4899308;29;20200;-59
2022/11/07 00:46:14;;;;;;;4.00;3.33;;;13.10;72.40;;;15.64;53.50;100563.06;4899106;29;20215;-62
2022/11/07 00:48:42;;;;;;;4.67;4.00;;;13.10;72.50;;;15.68;53.65;100553.63;4898427;29;20276;-58
2022/11/07 00:51:12;;;;;;;7.00;3.70;;;13.10;72.70;;;15.65;54.34;100554.06;4899217;29;20223;-60
2022/11/07 00:53:39;;;;;;;4.70;3.53;;;13.10;72.80;;;15.72;54.25;100559.31;4899558;29;20271;-59
2022/11/07 00:56:11;;;;;;;3.93;3.50;;;13.20;72.80;;;15.74;54.02;100558.09;4898360;29;20255;-60
2022/11/07 00:58:38;;;;;;;5.47;3.60;;;13.20;72.80;;;15.69;54.21;100557.09;4898033;29;20183;-61
2022/11/07 01:01:08;;;;;;;5.13;3.80;;;13.20;73.00;;;15.69;54.64;100555.25;4898839;29;20219;-60
2022/11/07 01:06:20;;;;;;;5.40;3.43;;;13.30;73.10;;;15.65;54.98;100547.94;4898713;29;20206;-60
2022/11/07 01:08:47;;;;;;;4.00;3.40;;;13.20;73.40;;;15.65;54.49;100556.72;4898786;29;20530;-59
2022/11/07 01:11:16;;;;;;;4.87;3.40;;;13.30;73.30;;;15.71;54.62;100541.78;4898354;29;20704;-60
2022/11/07 01:13:43;;;;;;;4.87;3.47;;;13.30;73.50;;;15.67;55.07;100567.09;4898106;29;20255;-60
2022/11/07 01:16:10;;;;;;;4.33;3.47;;;13.30;73.70;;;15.69;55.04;100565.88;4898939;29;20591;-59
2022/11/07 01:18:38;;;;;;;4.33;3.00;;;13.30;73.70;;;15.75;54.88;100564.22;4879444;29;20199;-59
2022/11/07 01:21:07;;;;;;;5.20;3.33;;;13.30;73.70;;;15.80;54.76;100561.75;4879801;29;20216;-59
2022/11/07 01:23:41;;;;;;;4.03;3.63;;;13.40;73.70;;;15.77;54.78;100568.28;4880198;29;20206;-61
2022/11/07 01:26:11;;;;;;;4.10;3.23;;;13.40;73.90;;;15.86;54.77;100571.50;4885896;29;20656;-59
2022/11/07 01:28:40;;;;;;;5.07;3.07;;;13.40;73.90;;;15.91;54.73;100572.50;4898343;29;20199;-61
2022/11/07 01:31:11;;;;;;;5.70;3.10;;;13.40;74.00;;;15.93;54.76;100573.09;4898636;29;20688;-60
2022/11/07 01:33:39;;;;;;;6.33;3.40;;;13.40;74.00;;;15.90;55.16;100576.16;4899170;29;20184;-61
2022/11/07 01:36:10;;;;;;;5.47;2.93;;;13.50;74.10;;;15.91;55.18;100569.84;4896919;29;20262;-61
2022/11/07 01:38:39;;;;;;;7.73;3.90;;;13.50;74.20;;;15.98;54.91;100573.25;4898466;29;20192;-61
2022/11/07 01:41:21;;;;;;;5.50;2.70;;;13.50;74.00;;;16.07;54.75;100574.63;4897780;29;20927;-60
2022/11/07 01:43:55;;;;;;;4.00;2.87;;;13.50;74.00;;;16.15;54.18;100566.41;4897829;29;20649;-59
2022/11/07 01:46:28;;;;;;;4.53;3.57;;;13.60;73.90;;;16.20;54.33;100574.56;4898106;29;20187;-60
2022/11/07 01:49:06;;;;;;;3.23;2.93;;;13.60;73.90;;;16.18;54.45;100573.97;4898407;29;20195;-60
2022/11/07 01:51:45;;;;;;;4.40;2.87;;;13.60;73.90;;;16.09;54.51;100572.56;4898104;29;20210;-60
2022/11/07 01:54:15;;;;;;;5.23;3.17;;;13.60;73.90;;;16.12;54.53;100572.16;4898205;29;20243;-61
2022/11/07 01:56:44;;;;;;;4.57;3.10;;;13.70;73.90;;;16.20;54.51;100563.13;4897416;29;20215;-61
2022/11/07 01:59:18;;;;;;;3.07;2.70;;;13.70;73.80;;;16.21;54.53;100565.53;4897896;29;20218;-60
2022/11/07 02:01:46;;;;;;;5.20;2.83;;;13.70;74.60;;;16.24;54.55;100566.97;4897512;29;20266;-61
2022/11/07 02:04:15;;;;;;;3.87;3.00;;;13.70;73.70;;;16.25;54.51;100563.28;4897880;29;20219;-61
2022/11/07 02:06:46;;;;;;;4.43;3.60;;;13.80;73.90;;;16.21;54.38;100570.84;4898309;29;20674;-60
2022/11/07 02:09:14;;;;;;;5.63;2.90;;;13.70;73.90;;;16.27;54.57;100564.69;4898327;29;20282;-58
2022/11/07 02:11:42;;;;;;;4.03;2.60;;;13.80;74.00;;;16.30;54.64;100573.25;4897698;29;20712;-59
2022/11/07 02:14:16;;;;;;;4.30;2.60;;;13.80;73.80;;;16.32;54.54;100581.81;4897949;29;20207;-61
2022/11/07 02:16:45;;;;;;;4.30;2.90;;;13.80;73.90;;;16.24;54.73;100574.91;4893419;29;20614;-60
2022/11/07 02:19:24;;;;;;;5.53;2.80;;;13.80;74.00;;;16.23;54.66;100571.47;4879212;29;20207;-61
2022/11/07 02:22:02;;;;;;;4.60;2.73;;;13.80;74.00;;;16.32;54.73;100582.63;4878972;29;20271;-61
2022/11/07 02:24:34;;;;;;;5.87;2.87;;;13.90;73.90;;;16.42;54.27;100574.19;4879389;29;20618;-61
2022/11/07 02:27:08;;;;;;;6.03;3.17;;;13.90;73.90;;;16.49;54.19;100580.25;4879403;29;20184;-59
2022/11/07 02:29:38;;;;;;;5.43;2.97;;;13.90;73.80;;;16.59;53.92;100575.31;4879517;29;20240;-59
2022/11/07 02:32:08;;;;;;;3.40;2.17;;;14.00;73.80;;;16.58;54.19;100571.00;4884449;29;20247;-60
2022/11/07 02:34:36;;;;;;;4.53;2.53;;;14.00;73.80;;;16.58;54.22;100581.66;4901912;29;20194;-60
2022/11/07 02:37:12;;;;;;;3.03;2.43;;;14.00;74.70;;;16.52;54.43;100578.00;4900958;29;20223;-61
2022/11/07 02:39:40;;;;;;;5.80;2.47;;;14.00;73.90;;;16.42;54.79;100567.03;4901519;29;20211;-61
2022/11/07 02:42:08;;;;;;;4.40;3.00;;;14.00;74.00;;;16.36;55.03;100575.03;4901512;29;20560;-58
2022/11/07 02:44:35;;;;;;;5.37;2.50;;;14.00;74.20;;;16.44;54.94;100574.78;4901802;29;20260;-59
2022/11/07 02:47:03;;;;;;;4.07;2.40;;;14.00;73.90;;;16.48;54.99;100576.78;4900260;29;20195;-60
2022/11/07 02:49:30;;;;;;;5.93;2.60;;;14.00;73.90;;;16.48;54.92;100575.97;4901084;29;20259;-59
2022/11/07 02:51:57;;;;;;;4.43;2.33;;;14.00;74.00;;;16.46;54.79;100573.53;4900739;29;20231;-60
2022/11/07 02:54:24;;;;;;;7.33;2.37;;;14.00;74.20;;;16.39;55.17;100579.94;4901166;29;20331;-61
2022/11/07 02:56:53;;;;;;;6.23;2.47;;;14.00;74.40;;;16.35;55.52;100576.09;4900631;29;20279;-60
2022/11/07 02:59:20;;;;;;;6.60;2.53;;;14.00;74.40;;;16.28;55.52;100576.13;4901182;29;20665;-61
2022/11/07 03:01:53;;;;;;;4.90;2.20;;;13.90;74.60;;;16.33;55.70;100572.84;4900925;29;20346;-61
2022/11/07 03:04:20;;;;;;;4.13;2.17;;;13.90;74.60;;;16.37;55.60;100580.16;4888866;29;20637;-61
2022/11/07 03:06:47;;;;;;;3.10;2.10;;;14.00;74.70;;;16.37;55.32;100574.84;4900653;29;20215;-61
2022/11/07 03:09:14;;;;;;;4.33;2.20;;;13.90;74.70;;;16.28;55.71;100573.50;4900596;29;20254;-59
2022/11/07 03:11:41;;;;;;;3.57;2.20;;;13.90;74.80;;;16.22;55.84;100577.81;4900585;29;20223;-60
2022/11/07 03:14:09;;;;;;;3.07;1.87;;;13.90;75.00;;;16.17;55.92;100577.63;4900847;29;20255;-58
2022/11/07 03:16:36;;;;;;;3.83;2.07;;;13.90;75.00;;;16.18;55.97;100581.94;4900686;29;20474;-58
2022/11/07 03:19:03;;;;;;;3.97;2.33;;;13.90;75.90;;;16.15;56.22;100590.31;4900866;29;20656;-58
2022/11/07 03:21:30;;;;;;;6.83;2.40;;;13.80;75.30;;;16.20;56.03;100601.13;4900585;29;20226;-61
2022/11/07 03:23:58;;;;;;;3.87;2.20;;;13.90;75.40;;;16.32;55.78;100611.84;4900641;29;20204;-60
2022/11/07 03:26:25;;;;;;;3.90;2.17;;;13.90;75.50;;;16.34;55.84;100611.63;4900874;29;20199;-60
2022/11/07 03:28:52;;;;;;;6.50;2.50;;;13.90;75.60;;;16.39;55.77;100606.50;4900569;29;20219;-61
2022/11/07 03:31:20;;;;;;;5.03;2.00;;;13.90;75.60;;;16.39;55.69;100609.16;4900292;29;20215;-59
2022/11/07 03:33:47;;;;;;;7.77;2.60;;;13.90;75.40;;;16.47;55.62;100606.25;4900631;29;20254;-61
2022/11/07 03:36:14;;;;;;;6.33;2.50;;;13.90;75.40;;;16.52;55.25;100609.09;4900512;29;20609;-60
2022/11/07 03:38:41;;;;;;;5.07;2.00;;;13.90;75.40;;;16.55;55.37;100604.16;4900126;29;20234;-59
2022/11/07 03:41:08;;;;;;;3.57;1.63;;;14.00;75.40;;;16.64;55.10;100607.38;4900370;29;20744;-61
2022/11/07 03:43:35;;;;;;;4.07;1.77;;;14.00;75.30;;;16.71;54.83;100608.13;4900997;29;20251;-61
2022/11/07 03:46:02;;;;;;;3.13;1.70;;;14.00;75.30;;;16.68;54.89;100603.22;4900573;29;20671;-60
2022/11/07 03:48:30;;;;;;;3.67;2.20;;;14.00;75.10;;;16.63;54.95;100603.06;4883850;29;20224;-58
2022/11/07 03:50:57;;;;;;;2.60;1.90;;;14.00;75.20;;;16.63;55.09;100600.41;4880382;29;20232;-58
2022/11/07 03:53:24;;;;;;;6.83;2.13;;;14.00;75.00;;;16.60;55.32;100600.84;4885233;29;20195;-60
2022/11/07 03:55:54;;;;;;;4.40;1.87;;;14.00;75.10;;;16.51;54.93;100595.00;4899121;29;20196;-60
2022/11/07 03:58:23;;;;;;;6.77;2.40;;;14.10;75.90;;;16.41;55.66;100601.78;4900032;29;20592;-60
2022/11/07 04:00:50;;;;;;;6.80;2.27;;;14.00;75.10;;;16.39;55.82;100606.50;4899717;29;20259;-59
2022/11/07 04:03:17;;;;;;;4.47;2.00;;;14.00;75.10;;;16.40;55.60;100600.97;4899765;29;20579;-61
2022/11/07 04:05:45;;;;;;;4.63;2.10;;;14.00;74.90;;;16.47;55.34;100607.06;4898862;29;20807;-58
2022/11/07 04:08:12;;;;;;;4.40;2.13;;;14.00;75.00;;;16.50;55.35;100611.09;4899849;29;20198;-61
2022/11/07 04:10:39;;;;;;;4.63;2.30;;;14.00;75.10;;;16.42;55.55;100606.06;4900257;29;20215;-57
2022/11/07 04:18:44;;;;;;;6.97;2.33;;;14.00;75.30;;;16.40;55.78;100605.47;4899694;29;20215;-62
2022/11/07 04:21:12;;;;;;;3.50;1.93;;;14.00;75.20;;;16.43;55.47;100605.03;4899047;29;20278;-61
2022/11/07 04:23:39;;;;;;;6.30;2.20;;;14.00;75.40;;;16.40;55.49;100610.78;4899304;29;20218;-60
2022/11/07 04:28:51;;;;;;;5.07;1.90;;;14.00;75.30;;;16.40;55.79;100629.38;4899377;29;20604;-59
2022/11/07 04:31:19;;;;;;;3.93;1.97;;;14.00;76.20;;;16.30;55.88;100621.06;4885057;29;20248;-60
2022/11/07 04:33:45;;;;;;;3.60;1.77;;;13.90;75.60;;;16.33;56.04;100636.59;4899582;29;20723;-61
2022/11/07 04:36:14;;;;;;;6.17;2.20;;;13.90;75.60;;;16.41;55.68;100636.31;4899224;29;20210;-59
2022/11/07 04:38:41;;;;;;;5.27;2.50;;;13.90;75.50;;;16.46;55.56;100633.81;4900940;29;20231;-62
2022/11/07 04:41:18;;;;;;;4.37;2.00;;;13.90;75.60;;;16.53;55.48;100626.66;4899878;29;20222;-60
2022/11/07 04:43:45;;;;;;;6.07;1.90;;;13.90;75.60;;;16.62;55.17;100635.97;4900139;29;20191;-60
2022/11/07 04:46:12;;;;;;;5.20;1.80;;;14.00;75.70;;;16.64;55.37;100631.28;4899068;29;20656;-61
2022/11/07 04:48:39;;;;;;;6.33;2.83;;;14.00;75.70;;;16.61;55.59;100629.88;4899423;29;20191;-60
2022/11/07 04:51:17;;;;;;;7.63;2.10;;;14.00;75.60;;;16.61;55.59;100635.19;4899258;29;20616;-60
2022/11/07 04:53:44;;;;;;;5.33;2.13;;;14.10;75.60;;;16.65;55.41;100636.38;4899219;29;20645;-61
2022/11/07 04:56:11;;;;;;;8.13;2.20;;;14.10;75.50;;;16.69;55.23;100636.75;4897788;29;20668;-61
2022/11/07 04:58:38;;;;;;;5.43;2.20;;;14.20;75.50;;;16.74;55.06;100642.22;4899067;29;20590;-59
2022/11/07 05:01:05;;;;;;;5.20;2.30;;;14.20;75.50;;;16.66;55.36;100632.66;4898312;29;20231;-61
2022/11/07 05:03:32;;;;;;;3.33;2.00;;;14.20;75.40;;;16.70;55.10;100630.41;4898542;29;20206;-62
2022/11/07 05:06:12;;;;;;;7.23;2.53;;;14.20;75.20;;;16.73;55.43;100632.63;4898615;29;20202;-62
2022/11/07 05:08:41;;;;;;;4.80;2.03;;;14.20;75.30;;;16.78;55.09;100638.13;4898934;29;20309;-61
2022/11/07 05:11:08;;;;;;;3.47;1.87;;;14.20;75.10;;;16.80;54.76;100638.72;4897976;29;20605;-61
2022/11/07 05:13:35;;;;;;;5.47;2.03;;;14.20;75.10;;;16.86;54.67;100645.81;4898321;29;20203;-60
2022/11/07 05:16:02;;;;;;;6.03;2.60;;;14.20;75.10;;;16.89;54.75;100643.53;4898349;29;20203;-60
2022/11/07 05:18:29;;;;;;;4.67;2.17;;;14.30;75.10;;;16.96;54.51;100643.47;4898292;29;20270;-61
2022/11/07 05:20:56;;;;;;;6.30;2.40;;;14.20;75.00;;;17.00;54.52;100644.66;4898322;29;20279;-59
2022/11/07 05:23:24;;;;;;;6.90;2.33;;;14.30;75.10;;;17.00;54.45;100649.97;4898689;29;20558;-59
2022/11/07 05:25:53;;;;;;;5.07;1.90;;;14.30;75.00;;;17.02;54.32;100644.47;4898124;29;20225;-60
2022/11/07 05:28:23;;;;;;;5.73;2.83;;;14.30;75.00;;;16.97;54.40;100653.09;4894082;29;20204;-61
2022/11/07 05:31:03;;;;;;;7.73;2.70;;;14.30;74.80;;;16.92;54.56;100652.94;4902443;29;20223;-61
2022/11/07 05:33:30;;;;;;;6.63;2.40;;;14.30;74.80;;;16.86;54.89;100654.59;4897369;29;20200;-62
2022/11/07 05:36:08;;;;;;;5.23;2.23;;;14.30;74.90;;;16.80;54.84;100646.69;4898412;29;20188;-61
2022/11/07 05:38:36;;;;;;;5.97;2.50;;;14.30;74.90;;;16.81;54.77;100656.28;4898164;29;20251;-62
2022/11/07 05:41:04;;;;;;;8.47;1.93;;;14.30;74.80;;;16.83;54.70;100648.88;4897299;29;20215;-62
2022/11/07 05:43:31;;;;;;;5.87;2.30;;;14.30;74.80;;;16.91;54.64;100651.28;4898137;29;20203;-61
2022/11/07 05:45:59;;;;;;;6.67;2.40;;;14.30;74.90;;;16.93;54.75;100659.84;4898709;29;20246;-62
2022/11/07 05:48:26;;;;;;;6.40;2.17;;;14.30;75.00;;;16.98;54.36;100662.69;4898219;29;20228;-62
2022/11/07 05:50:53;;;;;;;5.63;2.03;;;14.30;75.00;;;17.04;54.32;100666.31;4898053;29;20712;-61
2022/11/07 05:53:20;;;;;;;7.20;2.10;;;14.30;75.20;;;17.04;54.46;100669.81;4898082;29;20200;-62
2022/11/07 05:55:47;;;;;;;3.90;2.17;;;14.30;75.20;;;17.02;54.32;100663.88;4897502;29;20651;-61
2022/11/07 05:58:18;;;;;;;4.80;2.13;;;14.30;75.10;;;16.92;54.68;100668.88;4897658;29;20215;-61
2022/11/07 06:00:46;;;;;;;6.47;2.73;;;14.30;75.10;;;16.83;54.97;100665.66;4897895;29;20196;-60
2022/11/07 06:03:13;;;;;;;5.77;2.10;;;14.30;75.20;;;16.69;55.23;100665.97;4893935;29;20526;-61
2022/11/07 06:05:42;;;;;;;4.33;2.13;;;14.20;75.20;;;16.76;55.40;100675.53;4898774;29;20278;-62
2022/11/07 06:08:12;;;;;;;5.83;2.67;;;14.30;75.20;;;16.82;55.01;100671.22;4899860;29;20254;-60
2022/11/07 06:10:41;;;;;;;4.67;2.10;;;14.30;75.20;;;16.84;55.15;100672.63;4902739;29;20210;-62
2022/11/07 06:13:11;;;;;;;5.97;2.73;;;14.30;75.30;;;16.78;55.35;100683.31;4903140;29;20369;-61
2022/11/07 06:15:42;;;;;;;3.63;2.13;;;14.30;75.30;;;16.77;55.68;100681.66;4905578;29;20210;-60
2022/11/07 06:18:14;;;;;;;6.50;2.30;;;14.30;75.30;;;16.64;55.77;100687.09;4903692;29;20218;-59
2022/11/07 06:20:41;;;;;;;5.57;2.30;;;14.20;75.40;;;16.58;55.75;100687.94;4902264;29;20195;-60
2022/11/07 06:23:09;;;;;;;7.47;2.50;;;14.20;75.50;;;16.59;55.99;100702.88;4902291;29;20214;-62
2022/11/07 06:25:37;;;;;;;5.53;2.47;;;14.20;75.70;;;16.62;55.88;100689.13;4902752;29;20279;-61
2022/11/07 06:28:07;;;;;;;5.40;2.97;;;14.20;75.70;;;16.56;56.18;100690.00;4902497;29;20681;-62
2022/11/07 06:30:35;;;;;;;10.50;3.30;;;14.20;75.80;;;16.59;56.11;100694.91;4901035;29;20195;-62
2022/11/07 06:33:06;;;;;;;5.10;2.47;;;14.20;75.80;;;16.53;56.17;100695.75;4901488;29;20211;-61
2022/11/07 06:35:35;;;;;;;6.73;2.57;;;14.20;76.00;;;16.57;56.25;100708.38;4901892;29;20184;-61
2022/11/07 06:38:03;;;;;;;6.90;2.57;;;14.20;76.00;;;16.61;56.19;100703.47;4901094;29;20223;-61
2022/11/07 06:40:30;;;;;;;8.87;2.30;;;14.10;75.90;;;16.60;55.87;100699.16;4901683;29;20199;-63
2022/11/07 06:43:05;;;;;;;6.63;2.30;;;14.20;76.00;;;16.60;55.90;100702.66;4901964;29;20720;-61
2022/11/07 06:45:33;;;;;;;8.27;2.50;;;14.20;75.90;;;16.65;55.93;100700.16;4902180;29;20267;-62
2022/11/07 06:48:00;;;;;;;6.37;2.40;;;14.20;76.70;;;16.66;55.78;100711.63;4900966;29;20215;-61
2022/11/07 06:50:29;;;;;;;7.10;2.40;;;14.20;75.80;;;16.70;55.74;100712.81;4900880;29;20183;-61
2022/11/07 06:53:00;;;;;;;5.73;2.97;;;14.20;75.80;;;16.71;55.68;100714.44;4901717;29;20291;-59
2022/11/07 06:55:27;;;;;;;5.80;2.30;;;14.20;75.80;;;16.72;55.92;100716.88;4900868;29;20593;-61
2022/11/07 06:57:58;;;;;;;8.17;2.40;;;14.30;75.70;;;16.74;55.64;100714.00;4900768;29;20255;-62
2022/11/07 07:00:25;;;;;;;5.63;2.33;;;14.30;75.80;;;16.65;56.01;100716.09;4900969;29;20206;-60
2022/11/07 07:02:53;;;;;;;5.83;2.53;;;14.20;75.70;;;16.62;55.80;100716.53;4902720;29;20241;-61
2022/11/07 07:05:25;;;;;;;4.70;2.97;;;14.20;75.80;;;16.56;56.18;100721.91;4899880;29;20656;-60
2022/11/07 07:07:54;;;;;;;6.23;2.87;;;14.20;75.70;;;16.61;56.08;100720.22;4900568;29;20211;-62
2022/11/07 07:10:21;;;;;;;6.43;2.60;;;14.20;75.80;;;16.66;55.79;100723.03;4882399;29;20248;-62
2022/11/07 07:12:48;;;;;;;5.13;1.93;;;14.20;75.80;;;16.67;56.03;100718.53;4881856;29;20219;-60
2022/11/07 07:15:15;;;;;;;8.77;3.03;;;14.20;75.90;;;16.67;55.79;100722.03;4884108;29;20192;-61
2022/11/07 07:17:42;;;;;;;7.13;3.00;;;14.20;76.00;;;16.75;55.94;100726.28;4899242;29;20201;-60
2022/11/07 07:20:11;;;;;;;8.40;2.57;;;14.20;76.00;;;16.71;55.90;100720.56;4898605;29;20239;-60
2022/11/07 07:22:37;;;;;;;6.17;2.57;;;14.20;76.00;;;16.69;56.21;100725.28;4900012;29;20230;-61
2022/11/07 07:25:08;;;;;;;4.60;2.77;;;14.20;76.10;;;16.73;56.08;100728.34;4899941;29;20303;-60
2022/11/07 07:27:35;;;;;;;9.03;2.97;;;14.30;76.90;;;16.83;55.80;100739.28;4900570;29;20226;-61
2022/11/07 07:30:03;;;;;;;6.03;2.40;;;14.30;76.10;;;16.93;55.47;100736.97;4900151;29;20191;-60
2022/11/07 07:32:30;;;;;;;7.33;2.47;;;14.30;76.10;;;17.04;55.25;100746.94;4897486;29;20231;-63
2022/11/07 07:34:57;;;;;;;8.43;2.70;;;14.40;76.00;;;17.16;55.08;100744.38;4905991;29;20206;-61
2022/11/07 07:37:24;;;;;;;11.13;2.70;;;14.40;75.90;;;17.18;55.02;100740.47;4905696;29;20199;-61
2022/11/07 07:39:51;;;;;;;6.27;2.77;;;14.50;75.80;;;17.24;55.01;100742.25;4904821;29;20226;-59
2022/11/07 07:42:19;;;;;;;6.07;2.80;;;14.50;75.80;;;17.35;54.68;100748.72;4899018;29;20255;-60
2022/11/07 07:44:46;;;;;;;3.93;2.17;;;14.60;75.70;;;17.40;54.32;100746.22;4903382;29;20226;-62
2022/11/07 07:47:13;;;;;;;8.77;2.27;;;14.70;75.60;;;17.44;54.36;100748.22;4898483;29;20199;-62
2022/11/07 07:49:42;;;;;;;7.97;2.37;;;14.70;75.30;;;17.35;54.43;100754.03;4900269;29;20222;-61
2022/11/07 07:52:09;;;;;;;4.87;2.30;;;14.70;75.20;;;17.38;54.60;100754.41;4899143;29;20282;-60
2022/11/07 07:54:36;;;;;;;5.27;2.40;;;14.70;75.10;;;17.47;54.23;100750.41;4914689;29;20656;-61
2022/11/07 07:57:03;;;;;;;7.40;2.77;;;14.80;75.10;;;17.50;54.14;100757.97;4906927;29;20195;-62
2022/11/07 07:59:31;;;;;;;9.97;2.63;;;14.80;75.00;;;17.51;54.23;100745.50;4899710;29;20287;-62
2022/11/07 08:01:59;;;;;;;5.03;2.70;;;14.80;74.90;;;17.53;54.16;100748.78;4899725;29;20698;-61
2022/11/07 08:04:26;;;;;;;7.23;2.83;;;14.90;74.80;;;17.53;54.06;100756.75;4899853;29;20199;-59
2022/11/07 08:06:53;;;;;;;4.23;2.70;;;14.90;74.70;;;17.60;53.96;100757.50;4900230;29;20266;-58
2022/11/07 08:09:20;;;;;;;6.00;2.83;;;14.90;74.70;;;17.62;53.99;100759.94;4900708;29;20214;-60
2022/11/07 08:11:47;;;;;;;7.90;3.00;;;14.90;74.60;;;17.52;54.04;100755.94;4899918;29;20283;-61
2022/11/07 08:14:14;;;;;;;8.67;3.07;;;14.90;74.50;;;17.50;54.27;100754.50;4898705;29;20252;-60
2022/11/07 08:16:42;;;;;;;8.10;2.83;;;15.00;74.60;;;17.50;54.29;100768.63;4899832;29;20211;-61
2022/11/07 08:19:09;;;;;;;4.90;3.50;;;15.00;74.50;;;17.66;54.31;100777.13;4900272;29;20687;-61
2022/11/07 08:21:36;;;;;;;4.60;2.57;;;15.00;74.50;;;17.71;53.88;100769.28;4899505;29;20680;-61
2022/11/07 08:24:04;;;;;;;6.03;2.70;;;15.10;74.40;;;17.79;53.75;100767.16;4899853;29;20282;-62
2022/11/07 08:26:31;;;;;;;8.63;2.83;;;15.10;74.20;;;17.87;53.51;100766.03;4898662;29;20243;-61
2022/11/07 08:28:58;;;;;;;5.73;2.27;;;15.20;74.20;;;17.90;53.49;100762.94;4899219;29;20195;-62
2022/11/07 08:31:25;;;;;;;10.47;3.27;;;15.20;74.10;;;17.95;53.22;100765.72;4898145;29;20215;-61
2022/11/07 08:33:56;;;;;;;7.90;2.47;;;15.20;73.90;;;17.97;52.94;100774.34;4899291;29;20199;-61
2022/11/07 08:36:23;;;;;;;7.73;2.70;;;15.30;73.70;;;18.00;53.00;100769.38;4899502;29;20195;-62
2022/11/07 08:38:50;;;;;;;6.83;2.80;;;15.30;73.50;;;18.08;53.11;100765.59;4899509;29;20249;-63
2022/11/07 08:41:18;;;;;;;8.53;2.87;;;15.40;73.60;;;18.14;52.86;100772.69;4900273;29;20315;-61
2022/11/07 08:43:48;;;;;;;5.60;2.47;;;15.40;73.50;;;18.16;52.82;100783.97;4898643;29;20215;-62
2022/11/07 08:46:15;;;;;;;10.37;2.53;;;15.50;73.30;;;18.11;53.13;100771.28;4914703;29;20217;-62
2022/11/07 08:48:42;;;;;;;8.30;2.83;;;15.50;73.20;;;18.07;53.00;100777.28;4900355;29;20739;-62
2022/11/07 08:51:11;;;;;;;7.20;3.27;;;15.50;73.20;;;18.05;53.19;100771.38;4896188;29;20298;-61
2022/11/07 08:53:38;;;;;;;6.10;3.07;;;15.50;73.30;;;18.03;53.38;100776.09;4897977;29;20203;-60
2022/11/07 08:56:08;;;;;;;11.53;3.37;;;15.50;73.50;;;17.97;53.62;100769.03;4895998;29;20204;-61
2022/11/07 08:58:36;;;;;;;7.53;3.47;;;15.50;73.70;;;17.91;53.65;100775.22;4890005;29;20211;-62
2022/11/07 09:01:08;;;;;;;4.17;2.77;;;15.40;73.70;;;17.91;53.81;100780.53;4894970;29;20227;-62
2022/11/07 09:03:36;;;;;;;6.20;2.80;;;15.40;73.80;;;17.87;53.84;100790.84;4888092;29;20202;-60
2022/11/07 09:06:17;;;;;;;8.40;3.13;;;15.40;73.60;;;17.95;53.58;100781.72;4897325;29;20207;-61
2022/11/07 09:08:44;;;;;;;6.77;3.37;;;15.50;73.70;;;18.04;53.51;100783.06;4899032;29;20195;-62
2022/11/07 09:11:14;;;;;;;9.27;3.30;;;15.50;73.70;;;18.17;53.68;100788.25;4898726;29;20283;-61
2022/11/07 09:13:41;;;;;;;6.40;3.60;;;15.50;73.70;;;18.31;53.08;100797.69;4898757;29;20217;-62
2022/11/07 09:16:10;;;;;;;5.47;3.40;;;15.60;73.80;;;18.36;52.75;100789.84;4899207;29;20271;-60
2022/11/07 09:18:37;;;;;;;8.67;3.63;;;15.60;73.70;;;18.26;52.87;100789.56;4898327;29;20203;-63
2022/11/07 09:21:06;;;;;;;7.23;3.30;;;15.60;73.50;;;18.21;53.04;100794.75;4899034;29;20510;-61
2022/11/07 09:23:35;;;;;;;7.03;3.83;;;15.60;73.40;;;18.21;53.16;100792.06;4889462;29;20207;-61
2022/11/07 09:26:03;;;;;;;14.13;3.83;;;15.60;73.40;;;18.26;52.95;100795.72;4898558;29;20207;-60
2022/11/07 09:28:33;;;;;;;7.37;3.37;;;15.60;73.30;;;18.32;53.21;100794.00;4897658;29;20211;-60
2022/11/07 09:31:02;;;;;;;8.67;3.87;;;15.70;73.40;;;18.28;52.88;100795.47;4897898;29;20695;-61
2022/11/07 09:33:30;;;;;;;6.90;3.97;;;15.70;73.10;;;18.34;52.66;100797.25;4891252;29;20204;-60
2022/11/07 09:35:59;;;;;;;9.57;3.23;;;15.70;73.00;;;18.36;52.59;100808.50;4892754;29;20211;-63
2022/11/07 09:38:27;;;;;;;11.10;3.37;;;15.70;73.00;;;18.39;52.61;100799.25;4898478;29;20206;-60
2022/11/07 09:41:04;;;;;;;9.43;4.10;;;15.70;72.80;;;18.31;52.53;100808.38;4897445;29;20238;-60
2022/11/07 09:43:59;;;;;;;8.50;3.03;;;15.70;72.70;;;18.28;52.68;100819.47;4898006;29;20544;-60
2022/11/07 09:46:45;;;;;;;7.97;3.13;;;15.70;72.70;;;18.29;52.55;100815.78;4896387;29;20222;-61
2022/11/07 09:49:20;;;;;;;9.40;3.10;;;15.70;72.60;;;18.29;52.55;100799.78;4897765;29;20255;-59
2022/11/07 09:51:59;;;;;;;7.93;3.53;;;15.80;72.60;;;18.03;52.79;100800.91;4898210;29;20563;-65
2022/11/07 09:54:32;;;;;;;8.63;3.03;;;15.60;72.40;;;18.08;53.01;100805.56;4913166;29;20208;-62
2022/11/07 09:57:01;;;;;;;9.63;3.37;;;15.70;72.60;;;18.10;53.06;100811.47;4894918;29;20199;-62
2022/11/07 09:59:37;;;;;;;7.77;2.67;;;15.70;72.70;;;18.17;53.04;100809.56;4893860;29;20223;-61
2022/11/07 10:02:14;;;;;;;9.90;3.17;;;15.70;72.80;;;18.26;52.70;100818.88;4883220;29;20218;-62
2022/11/07 10:04:43;;;;;;;8.70;2.80;;;15.70;72.70;;;18.39;52.56;100824.06;4896017;29;20675;-62
2022/11/07 10:07:24;;;;;;;7.57;2.90;;;15.70;72.60;;;18.43;52.29;100833.22;4896820;29;20219;-63
2022/11/07 10:10:01;;;;;;;13.23;3.63;;;15.70;72.60;;;18.37;52.45;100828.81;4898402;29;20589;-61
2022/11/07 10:13:13;;;;;;;7.37;3.37;;;15.70;73.00;;;18.19;53.20;100834.94;4889888;29;20214;-60
2022/11/07 10:16:01;;;;;;;7.30;3.07;;;15.70;73.20;;;18.25;52.96;100830.59;4897048;29;20575;-58
2022/11/07 10:18:47;;;;;;;5.73;3.40;;;15.70;73.30;;;18.29;52.88;100839.75;4908040;29;20213;-62
2022/11/07 10:21:25;;;;;;;7.10;3.10;;;15.70;73.50;;;18.34;52.96;100845.25;4899304;29;20219;-62
2022/11/07 10:24:41;;;;;;;12.83;3.80;;;15.60;73.50;;;18.29;52.89;100855.75;4898129;29;20195;-61
2022/11/07 10:27:10;;;;;;;6.87;3.17;;;15.70;73.40;;;18.37;52.82;100839.47;4897445;29;20570;-61
2022/11/07 10:29:46;;;;;;;8.87;3.57;;;15.70;73.30;;;18.46;52.55;100840.81;4897753;29;20251;-62
2022/11/07 10:32:21;;;;;;;9.27;3.77;;;15.70;73.30;;;18.37;52.69;100841.31;4897977;29;20238;-62
2022/11/07 10:34:57;;;;;;;9.27;3.67;;;15.70;73.00;;;18.35;52.64;100835.41;4899604;29;20191;-62